Procure no Apolo11
Meteógrafos Informações Meteorológicas em tempo real
Aeroporto de Congonhas
11-08-2022 11:55 BRT (UTC-3)

Temperatura atual: 14 graus 57 F    Umidade relativa: 82 %
Velocidade do vento: 14 nós 25 Km/h    Direção: 180 graus S
Ajuste do altímetro ..: 1024 HPA
Visibilidade: Ótima    Tempo presente: Muitas Nuvens

Observação
Céu nublado a 1300 Pés., Céu nublado a 2600 Pés.
Data Hora BRTTempo°CUmidadePressãoVentoVisib.
11/08 - 10:59   Muitas Nuvens 14° 82% 1024 Sul/25 km/h 9999
11/08 - 09:56   Parcialmente Nublado 13° 87% 1024 Sudoeste/18 km/h 7000
11/08 - 08:56   Parcialmente Nublado 12° 87% 1022 Sul-sudoeste/14 km/h 9999
11/08 - 07:56   Parcialmente Nublado 11° 93% 1021 Sul-sudoeste/16 km/h 9999
11/08 - 06:56   Parcialmente Nublado 11° 93% 1021 Sul-sudoeste/16 km/h 9999
11/08 - 05:56   Parcialmente Nublado 11° 93% 1020 Sudoeste/10 km/h 9999
11/08 - 04:56   Parcialmente Nublado 11° 93% 1020 Oeste-sudoeste/10 km/h 9999
11/08 - 03:56   Parcialmente Nublado 11° 93% 1020 Oeste/9 km/h 9999
11/08 - 02:56   Céu Encoberto 10° 93% 1020 Noroeste/10 km/h OK
11/08 - 01:56   Parcialmente Nublado 10° 100% 1021 Noroeste/12 km/h OK
11/08 - 00:56   Céu Encoberto 11° 93% 1020 Oeste-noroeste/12 km/h 9999
10/08 - 23:56   Parcialmente Nublado 11° 93% 1020 Oeste-noroeste/12 km/h 9999
10/08 - 22:56   Chovendo fraco 11° 93% 1020 Oeste-noroeste/10 km/h 9000
10/08 - 21:56   Parcialmente Nublado 12° 76% 1019 Oeste-noroeste/18 km/h OK
10/08 - 20:56   Poucas nuvens esparsas 12° 71% 1017 Oeste-noroeste/21 km/h 9999
10/08 - 19:56   Parcialmente Nublado 13° 66% 1017 Oeste-noroeste/27 km/h 9999
10/08 - 18:56   Parcialmente Nublado 14° 47% 1015 Oeste-noroeste/39 km/h 9999
10/08 - 17:56   Poucas nuvens esparsas 15° 41% 1014 Noroeste/32 km/h 9999
10/08 - 16:56   Parcialmente Nublado 16° 41% 1013 Oeste-noroeste/36 km/h 9999
10/08 - 15:56   Parcialmente Nublado 17° 39% 1013 Noroeste/36 km/h OK
10/08 - 14:56   Parcialmente Nublado 17° 42% 1013 Norte-noroeste/39 km/h OK
10/08 - 13:56   Parcialmente Nublado 17° 42% 1013 Norte-noroeste/39 km/h OK
10/08 - 12:56   Poucas nuvens esparsas 16° 59% 1015 Noroeste/34 km/h 9999
10/08 - 11:56   Parcialmente Nublado 14° 71% 1016 Noroeste/28 km/h 9999

Termo de Uso  |   Links Úteis  |   Imprensa  |  Anuncie  |  Fale Conosco  |  Versão Celular  |   Política de Privacidade

Apolo11.com - Todos os direitos reservados - 2000 - 2022

"Não é por termos vivido um certo número de anos que envelhecemos. Envelhecemos porque abandonamos o nosso ideal" - General Mac Arthur -